sensor_id;sensor_type;location;lat;lon;timestamp;pressure;altitude;pressure_sealevel;temperature;humidity
38400;BME280;24180;42.676;23.320;2022-09-02T00:00:30;94414.19;;;20.43;100.00
38400;BME280;24180;42.676;23.320;2022-09-02T00:02:56;94421.38;;;20.54;100.00
38400;BME280;24180;42.676;23.320;2022-09-02T00:05:21;94421.81;;;20.51;100.00
38400;BME280;24180;42.676;23.320;2022-09-02T00:07:47;94409.69;;;20.50;100.00
38400;BME280;24180;42.676;23.320;2022-09-02T00:10:13;94397.59;;;20.43;100.00
38400;BME280;24180;42.676;23.320;2022-09-02T00:12:38;94412.31;;;20.50;100.00
38400;BME280;24180;42.676;23.320;2022-09-02T00:15:04;94402.03;;;20.42;100.00
38400;BME280;24180;42.676;23.320;2022-09-02T00:17:30;94398.47;;;20.30;100.00
38400;BME280;24180;42.676;23.320;2022-09-02T00:19:55;94417.03;;;20.42;100.00
38400;BME280;24180;42.676;23.320;2022-09-02T00:22:21;94408.72;;;20.45;100.00
38400;BME280;24180;42.676;23.320;2022-09-02T00:24:47;94417.56;;;20.50;100.00
38400;BME280;24180;42.676;23.320;2022-09-02T00:27:12;94425.72;;;20.42;100.00
38400;BME280;24180;42.676;23.320;2022-09-02T00:29:38;94433.56;;;20.49;100.00
38400;BME280;24180;42.676;23.320;2022-09-02T00:32:04;94440.03;;;20.46;100.00
38400;BME280;24180;42.676;23.320;2022-09-02T00:34:29;94450.00;;;20.44;100.00
38400;BME280;24180;42.676;23.320;2022-09-02T00:36:56;94447.34;;;20.44;100.00
38400;BME280;24180;42.676;23.320;2022-09-02T00:39:21;94439.72;;;20.36;100.00
38400;BME280;24180;42.676;23.320;2022-09-02T00:41:47;94445.16;;;20.41;100.00
38400;BME280;24180;42.676;23.320;2022-09-02T00:44:16;94439.34;;;20.33;100.00
38400;BME280;24180;42.676;23.320;2022-09-02T00:46:41;94447.00;;;20.34;100.00
38400;BME280;24180;42.676;23.320;2022-09-02T00:49:15;94454.47;;;20.37;100.00
38400;BME280;24180;42.676;23.320;2022-09-02T00:51:45;94450.16;;;20.49;100.00
38400;BME280;24180;42.676;23.320;2022-09-02T00:54:14;94449.56;;;20.47;100.00
38400;BME280;24180;42.676;23.320;2022-09-02T00:56:42;94454.25;;;20.45;100.00
38400;BME280;24180;42.676;23.320;2022-09-02T00:59:13;94463.66;;;20.60;100.00
38400;BME280;24180;42.676;23.320;2022-09-02T01:01:40;94460.31;;;20.46;100.00
38400;BME280;24180;42.676;23.320;2022-09-02T01:04:06;94448.75;;;20.47;100.00
38400;BME280;24180;42.676;23.320;2022-09-02T01:06:31;94460.22;;;20.59;100.00
38400;BME280;24180;42.676;23.320;2022-09-02T01:09:06;94457.81;;;20.58;100.00
38400;BME280;24180;42.676;23.320;2022-09-02T01:11:45;94460.59;;;20.63;100.00
38400;BME280;24180;42.676;23.320;2022-09-02T01:14:13;94455.13;;;20.64;100.00
38400;BME280;24180;42.676;23.320;2022-09-02T01:16:43;94463.34;;;20.74;100.00
38400;BME280;24180;42.676;23.320;2022-09-02T01:19:20;94473.25;;;20.79;100.00
38400;BME280;24180;42.676;23.320;2022-09-02T01:21:49;94477.44;;;20.55;100.00
38400;BME280;24180;42.676;23.320;2022-09-02T01:24:16;94470.22;;;20.44;100.00
38400;BME280;24180;42.676;23.320;2022-09-02T01:26:43;94477.53;;;20.42;100.00
38400;BME280;24180;42.676;23.320;2022-09-02T01:29:10;94471.47;;;20.35;100.00
38400;BME280;24180;42.676;23.320;2022-09-02T01:31:36;94462.00;;;20.21;100.00
38400;BME280;24180;42.676;23.320;2022-09-02T01:34:02;94446.88;;;20.16;100.00
38400;BME280;24180;42.676;23.320;2022-09-02T01:36:32;94447.88;;;20.15;100.00
38400;BME280;24180;42.676;23.320;2022-09-02T01:38:57;94446.66;;;20.18;100.00
38400;BME280;24180;42.676;23.320;2022-09-02T01:41:23;94442.63;;;20.15;100.00
38400;BME280;24180;42.676;23.320;2022-09-02T01:43:49;94417.84;;;19.91;100.00
38400;BME280;24180;42.676;23.320;2022-09-02T01:46:14;94401.09;;;19.92;100.00
38400;BME280;24180;42.676;23.320;2022-09-02T01:48:40;94410.06;;;19.72;100.00
38400;BME280;24180;42.676;23.320;2022-09-02T01:51:06;94400.19;;;19.54;100.00
38400;BME280;24180;42.676;23.320;2022-09-02T01:53:31;94395.97;;;19.53;100.00
38400;BME280;24180;42.676;23.320;2022-09-02T01:55:58;94400.63;;;19.51;100.00
38400;BME280;24180;42.676;23.320;2022-09-02T01:58:24;94389.91;;;19.46;100.00
38400;BME280;24180;42.676;23.320;2022-09-02T02:00:50;94396.78;;;19.40;100.00
38400;BME280;24180;42.676;23.320;2022-09-02T02:03:16;94378.63;;;19.32;100.00
38400;BME280;24180;42.676;23.320;2022-09-02T02:05:42;94392.75;;;19.38;100.00
38400;BME280;24180;42.676;23.320;2022-09-02T02:08:08;94382.44;;;19.36;100.00
38400;BME280;24180;42.676;23.320;2022-09-02T02:10:34;94386.91;;;19.42;100.00
38400;BME280;24180;42.676;23.320;2022-09-02T02:13:01;94386.09;;;19.48;100.00
38400;BME280;24180;42.676;23.320;2022-09-02T02:15:26;94396.38;;;19.50;100.00
38400;BME280;24180;42.676;23.320;2022-09-02T02:17:52;94393.97;;;19.48;100.00
38400;BME280;24180;42.676;23.320;2022-09-02T02:20:19;94407.25;;;19.60;100.00
38400;BME280;24180;42.676;23.320;2022-09-02T02:22:45;94404.44;;;19.61;100.00
38400;BME280;24180;42.676;23.320;2022-09-02T02:25:13;94396.75;;;19.60;100.00
38400;BME280;24180;42.676;23.320;2022-09-02T02:27:40;94395.13;;;19.59;100.00
38400;BME280;24180;42.676;23.320;2022-09-02T02:30:06;94392.69;;;19.64;100.00
38400;BME280;24180;42.676;23.320;2022-09-02T02:32:32;94401.16;;;19.66;100.00
38400;BME280;24180;42.676;23.320;2022-09-02T02:34:58;94404.44;;;19.61;100.00
38400;BME280;24180;42.676;23.320;2022-09-02T02:37:24;94416.94;;;19.66;100.00
38400;BME280;24180;42.676;23.320;2022-09-02T02:39:50;94417.72;;;19.73;100.00
38400;BME280;24180;42.676;23.320;2022-09-02T02:42:15;94420.53;;;19.78;100.00
38400;BME280;24180;42.676;23.320;2022-09-02T02:44:42;94412.88;;;19.77;100.00
38400;BME280;24180;42.676;23.320;2022-09-02T02:47:08;94409.25;;;19.71;100.00
38400;BME280;24180;42.676;23.320;2022-09-02T02:49:41;94422.41;;;19.65;100.00
38400;BME280;24180;42.676;23.320;2022-09-02T02:52:07;94419.78;;;19.65;100.00
38400;BME280;24180;42.676;23.320;2022-09-02T02:54:33;94418.16;;;19.63;100.00
38400;BME280;24180;42.676;23.320;2022-09-02T02:57:02;94407.69;;;19.50;100.00
38400;BME280;24180;42.676;23.320;2022-09-02T02:59:28;94400.00;;;19.55;100.00
38400;BME280;24180;42.676;23.320;2022-09-02T03:01:54;94398.00;;;19.51;100.00
38400;BME280;24180;42.676;23.320;2022-09-02T03:04:20;94411.13;;;19.51;100.00
38400;BME280;24180;42.676;23.320;2022-09-02T03:06:47;94415.16;;;19.40;100.00
38400;BME280;24180;42.676;23.320;2022-09-02T03:09:13;94415.78;;;19.42;100.00
38400;BME280;24180;42.676;23.320;2022-09-02T03:11:39;94409.53;;;19.43;100.00
38400;BME280;24180;42.676;23.320;2022-09-02T03:14:04;94413.34;;;19.41;100.00
38400;BME280;24180;42.676;23.320;2022-09-02T03:16:30;94405.28;;;19.42;100.00
38400;BME280;24180;42.676;23.320;2022-09-02T03:18:58;94403.84;;;19.40;100.00
38400;BME280;24180;42.676;23.320;2022-09-02T03:21:23;94406.66;;;19.38;100.00
38400;BME280;24180;42.676;23.320;2022-09-02T03:23:49;94396.59;;;19.35;100.00
38400;BME280;24180;42.676;23.320;2022-09-02T03:26:22;94401.25;;;19.33;100.00
38400;BME280;24180;42.676;23.320;2022-09-02T03:28:48;94400.84;;;19.23;100.00
38400;BME280;24180;42.676;23.320;2022-09-02T03:31:19;94405.28;;;19.29;100.00
38400;BME280;24180;42.676;23.320;2022-09-02T03:33:45;94403.69;;;19.22;100.00
38400;BME280;24180;42.676;23.320;2022-09-02T03:36:19;94404.88;;;19.32;100.00
38400;BME280;24180;42.676;23.320;2022-09-02T03:38:46;94409.94;;;19.21;100.00
38400;BME280;24180;42.676;23.320;2022-09-02T03:41:11;94409.56;;;19.17;100.00
38400;BME280;24180;42.676;23.320;2022-09-02T03:43:36;94418.25;;;19.17;100.00
38400;BME280;24180;42.676;23.320;2022-09-02T03:46:02;94415.19;;;19.21;100.00
38400;BME280;24180;42.676;23.320;2022-09-02T03:48:29;94418.84;;;19.13;100.00
38400;BME280;24180;42.676;23.320;2022-09-02T03:50:55;94423.09;;;19.07;100.00
38400;BME280;24180;42.676;23.320;2022-09-02T03:53:21;94429.34;;;19.13;100.00
38400;BME280;24180;42.676;23.320;2022-09-02T03:55:47;94439.84;;;19.13;100.00
38400;BME280;24180;42.676;23.320;2022-09-02T03:58:13;94440.25;;;19.16;100.00
38400;BME280;24180;42.676;23.320;2022-09-02T04:00:39;94443.69;;;19.17;100.00
38400;BME280;24180;42.676;23.320;2022-09-02T04:03:05;94449.31;;;19.21;100.00
38400;BME280;24180;42.676;23.320;2022-09-02T04:05:32;94444.69;;;19.16;100.00
38400;BME280;24180;42.676;23.320;2022-09-02T04:07:58;94440.63;;;19.20;100.00
38400;BME280;24180;42.676;23.320;2022-09-02T04:10:24;94448.13;;;19.16;100.00
38400;BME280;24180;42.676;23.320;2022-09-02T04:12:50;94452.75;;;19.08;100.00
38400;BME280;24180;42.676;23.320;2022-09-02T04:15:16;94462.25;;;19.09;100.00
38400;BME280;24180;42.676;23.320;2022-09-02T04:17:44;94452.75;;;19.08;100.00
38400;BME280;24180;42.676;23.320;2022-09-02T04:20:11;94476.56;;;19.20;100.00
38400;BME280;24180;42.676;23.320;2022-09-02T04:22:37;94465.47;;;19.24;100.00
38400;BME280;24180;42.676;23.320;2022-09-02T04:25:04;94460.03;;;19.19;100.00
38400;BME280;24180;42.676;23.320;2022-09-02T04:27:29;94467.09;;;19.25;100.00
38400;BME280;24180;42.676;23.320;2022-09-02T04:29:55;94454.19;;;19.17;100.00
38400;BME280;24180;42.676;23.320;2022-09-02T04:32:21;94460.63;;;19.14;100.00
38400;BME280;24180;42.676;23.320;2022-09-02T04:34:48;94463.44;;;19.20;100.00
38400;BME280;24180;42.676;23.320;2022-09-02T04:37:16;94471.94;;;19.22;100.00
38400;BME280;24180;42.676;23.320;2022-09-02T04:39:43;94471.31;;;19.26;100.00
38400;BME280;24180;42.676;23.320;2022-09-02T04:42:08;94475.97;;;19.31;100.00
38400;BME280;24180;42.676;23.320;2022-09-02T04:44:34;94474.97;;;19.25;100.00
38400;BME280;24180;42.676;23.320;2022-09-02T04:46:59;94469.50;;;19.33;100.00
38400;BME280;24180;42.676;23.320;2022-09-02T04:49:26;94487.50;;;19.43;100.00
38400;BME280;24180;42.676;23.320;2022-09-02T04:51:55;94477.97;;;19.35;100.00
38400;BME280;24180;42.676;23.320;2022-09-02T04:54:21;94488.31;;;19.43;100.00
38400;BME280;24180;42.676;23.320;2022-09-02T04:56:49;94478.78;;;19.36;100.00
38400;BME280;24180;42.676;23.320;2022-09-02T04:59:15;94486.47;;;19.37;100.00
38400;BME280;24180;42.676;23.320;2022-09-02T05:01:40;94481.41;;;19.23;100.00
38400;BME280;24180;42.676;23.320;2022-09-02T05:04:07;94492.13;;;19.41;100.00
38400;BME280;24180;42.676;23.320;2022-09-02T05:06:36;94492.31;;;19.39;100.00
38400;BME280;24180;42.676;23.320;2022-09-02T05:09:03;94489.69;;;19.39;100.00
38400;BME280;24180;42.676;23.320;2022-09-02T05:11:30;94485.25;;;19.46;100.00
38400;BME280;24180;42.676;23.320;2022-09-02T05:14:03;94484.66;;;19.44;100.00
38400;BME280;24180;42.676;23.320;2022-09-02T05:16:33;94488.47;;;19.55;100.00
38400;BME280;24180;42.676;23.320;2022-09-02T05:19:01;94487.88;;;19.59;100.00
38400;BME280;24180;42.676;23.320;2022-09-02T05:21:28;94493.31;;;19.65;100.00
38400;BME280;24180;42.676;23.320;2022-09-02T05:23:56;94496.31;;;19.75;100.00
38400;BME280;24180;42.676;23.320;2022-09-02T05:26:21;94495.28;;;19.82;100.00
38400;BME280;24180;42.676;23.320;2022-09-02T05:28:47;94501.75;;;19.93;100.00
38400;BME280;24180;42.676;23.320;2022-09-02T05:31:14;94490.81;;;19.96;100.00
38400;BME280;24180;42.676;23.320;2022-09-02T05:33:43;94493.41;;;20.02;100.00
38400;BME280;24180;42.676;23.320;2022-09-02T05:36:18;94496.63;;;20.11;100.00
38400;BME280;24180;42.676;23.320;2022-09-02T05:38:45;94494.81;;;20.12;100.00
38400;BME280;24180;42.676;23.320;2022-09-02T05:41:16;94499.22;;;20.24;100.00
38400;BME280;24180;42.676;23.320;2022-09-02T05:43:44;94483.84;;;20.21;100.00
38400;BME280;24180;42.676;23.320;2022-09-02T05:46:14;94498.31;;;20.50;100.00
38400;BME280;24180;42.676;23.320;2022-09-02T05:48:42;94501.09;;;20.62;100.00
38400;BME280;24180;42.676;23.320;2022-09-02T05:51:27;94494.53;;;20.77;100.00
38400;BME280;24180;42.676;23.320;2022-09-02T05:53:54;94493.63;;;20.90;100.00
38400;BME280;24180;42.676;23.320;2022-09-02T05:56:21;94492.69;;;21.09;100.00
38400;BME280;24180;42.676;23.320;2022-09-02T05:58:47;94494.06;;;21.18;100.00
38400;BME280;24180;42.676;23.320;2022-09-02T06:01:14;94492.84;;;21.39;100.00
38400;BME280;24180;42.676;23.320;2022-09-02T06:03:42;94487.75;;;21.44;100.00
38400;BME280;24180;42.676;23.320;2022-09-02T06:06:09;94490.31;;;21.51;100.00
38400;BME280;24180;42.676;23.320;2022-09-02T06:08:35;94499.34;;;21.61;100.00
38400;BME280;24180;42.676;23.320;2022-09-02T06:11:02;94499.13;;;21.63;100.00
38400;BME280;24180;42.676;23.320;2022-09-02T06:13:30;94508.00;;;21.68;100.00
38400;BME280;24180;42.676;23.320;2022-09-02T06:15:56;94502.66;;;21.75;100.00
38400;BME280;24180;42.676;23.320;2022-09-02T06:18:22;94502.97;;;21.85;100.00
38400;BME280;24180;42.676;23.320;2022-09-02T06:20:49;94510.41;;;21.95;100.00
38400;BME280;24180;42.676;23.320;2022-09-02T06:23:15;94493.19;;;21.92;100.00
38400;BME280;24180;42.676;23.320;2022-09-02T06:25:43;94498.25;;;21.93;100.00
38400;BME280;24180;42.676;23.320;2022-09-02T06:28:10;94519.34;;;21.93;100.00
38400;BME280;24180;42.676;23.320;2022-09-02T06:30:42;94518.09;;;21.96;100.00
38400;BME280;24180;42.676;23.320;2022-09-02T06:33:08;94528.81;;;22.01;100.00
38400;BME280;24180;42.676;23.320;2022-09-02T06:35:39;94516.19;;;22.03;100.00
38400;BME280;24180;42.676;23.320;2022-09-02T06:38:06;94524.94;;;22.22;100.00
38400;BME280;24180;42.676;23.320;2022-09-02T06:40:32;94524.38;;;22.31;100.00
38400;BME280;24180;42.676;23.320;2022-09-02T06:42:58;94516.53;;;22.43;100.00
38400;BME280;24180;42.676;23.320;2022-09-02T06:45:23;94534.19;;;22.61;100.00
38400;BME280;24180;42.676;23.320;2022-09-02T06:47:49;94540.34;;;22.73;100.00
38400;BME280;24180;42.676;23.320;2022-09-02T06:50:17;94542.25;;;22.66;100.00
38400;BME280;24180;42.676;23.320;2022-09-02T06:52:42;94532.94;;;22.63;100.00
38400;BME280;24180;42.676;23.320;2022-09-02T06:55:08;94530.84;;;22.54;100.00
38400;BME280;24180;42.676;23.320;2022-09-02T06:57:35;94528.94;;;22.43;100.00
38400;BME280;24180;42.676;23.320;2022-09-02T07:00:04;94545.84;;;22.53;100.00
38400;BME280;24180;42.676;23.320;2022-09-02T07:02:31;94538.63;;;22.30;100.00
38400;BME280;24180;42.676;23.320;2022-09-02T07:04:56;94534.22;;;22.24;100.00
38400;BME280;24180;42.676;23.320;2022-09-02T07:07:36;94550.25;;;22.41;100.00
38400;BME280;24180;42.676;23.320;2022-09-02T07:10:04;94548.66;;;22.58;100.00
38400;BME280;24180;42.676;23.320;2022-09-02T07:12:30;94550.31;;;22.71;100.00
38400;BME280;24180;42.676;23.320;2022-09-02T07:14:56;94559.94;;;22.95;100.00
38400;BME280;24180;42.676;23.320;2022-09-02T07:17:22;94550.69;;;23.04;100.00
38400;BME280;24180;42.676;23.320;2022-09-02T07:19:49;94554.31;;;23.21;100.00
38400;BME280;24180;42.676;23.320;2022-09-02T07:22:16;94561.09;;;23.29;100.00
38400;BME280;24180;42.676;23.320;2022-09-02T07:24:42;94566.31;;;23.47;100.00
38400;BME280;24180;42.676;23.320;2022-09-02T07:27:08;94559.94;;;23.66;100.00
38400;BME280;24180;42.676;23.320;2022-09-02T07:29:34;94564.31;;;23.96;100.00
38400;BME280;24180;42.676;23.320;2022-09-02T07:32:00;94565.13;;;24.19;100.00
38400;BME280;24180;42.676;23.320;2022-09-02T07:34:26;94559.38;;;24.22;100.00
38400;BME280;24180;42.676;23.320;2022-09-02T07:36:52;94565.56;;;24.51;100.00
38400;BME280;24180;42.676;23.320;2022-09-02T07:39:18;94564.94;;;24.61;100.00
38400;BME280;24180;42.676;23.320;2022-09-02T07:41:48;94563.72;;;24.40;100.00
38400;BME280;24180;42.676;23.320;2022-09-02T07:44:17;94561.44;;;24.32;100.00
38400;BME280;24180;42.676;23.320;2022-09-02T07:46:43;94560.78;;;24.65;100.00
38400;BME280;24180;42.676;23.320;2022-09-02T07:49:10;94556.13;;;24.95;100.00
38400;BME280;24180;42.676;23.320;2022-09-02T07:51:38;94559.22;;;25.21;100.00
38400;BME280;24180;42.676;23.320;2022-09-02T07:54:05;94559.19;;;25.49;100.00
38400;BME280;24180;42.676;23.320;2022-09-02T07:56:31;94554.03;;;25.42;100.00
38400;BME280;24180;42.676;23.320;2022-09-02T07:58:56;94562.63;;;25.49;100.00
38400;BME280;24180;42.676;23.320;2022-09-02T08:01:22;94564.84;;;25.52;100.00
38400;BME280;24180;42.676;23.320;2022-09-02T08:03:50;94570.44;;;25.39;100.00
38400;BME280;24180;42.676;23.320;2022-09-02T08:06:16;94578.28;;;25.34;100.00
38400;BME280;24180;42.676;23.320;2022-09-02T08:08:42;94570.06;;;25.19;100.00
38400;BME280;24180;42.676;23.320;2022-09-02T08:11:09;94581.09;;;24.99;100.00
38400;BME280;24180;42.676;23.320;2022-09-02T08:13:35;94573.53;;;24.91;100.00
38400;BME280;24180;42.676;23.320;2022-09-02T08:16:01;94583.69;;;24.71;100.00
38400;BME280;24180;42.676;23.320;2022-09-02T08:18:28;94589.41;;;24.28;100.00
38400;BME280;24180;42.676;23.320;2022-09-02T08:20:54;94587.09;;;24.32;100.00
38400;BME280;24180;42.676;23.320;2022-09-02T08:23:20;94581.69;;;24.38;100.00
38400;BME280;24180;42.676;23.320;2022-09-02T08:25:46;94587.41;;;24.12;100.00
38400;BME280;24180;42.676;23.320;2022-09-02T08:28:12;94586.19;;;24.03;100.00
38400;BME280;24180;42.676;23.320;2022-09-02T08:30:38;94585.72;;;23.83;100.00
38400;BME280;24180;42.676;23.320;2022-09-02T08:33:03;94589.50;;;23.75;100.00
38400;BME280;24180;42.676;23.320;2022-09-02T08:35:30;94584.31;;;23.80;100.00
38400;BME280;24180;42.676;23.320;2022-09-02T08:37:59;94588.75;;;23.56;100.00
38400;BME280;24180;42.676;23.320;2022-09-02T08:40:30;94585.22;;;23.51;100.00
38400;BME280;24180;42.676;23.320;2022-09-02T08:43:00;94581.84;;;23.44;100.00
38400;BME280;24180;42.676;23.320;2022-09-02T08:45:37;94587.38;;;23.54;100.00
38400;BME280;24180;42.676;23.320;2022-09-02T08:51:26;94579.94;;;23.62;100.00
38400;BME280;24180;42.676;23.320;2022-09-02T08:56:57;94577.09;;;23.99;100.00
38400;BME280;24180;42.676;23.320;2022-09-02T08:59:25;94571.78;;;24.34;100.00
38400;BME280;24180;42.676;23.320;2022-09-02T09:02:16;94573.69;;;24.61;100.00
38400;BME280;24180;42.676;23.320;2022-09-02T09:16:27;94570.00;;;25.59;100.00
38400;BME280;24180;42.676;23.320;2022-09-02T09:21:37;94566.59;;;25.47;100.00
38400;BME280;24180;42.676;23.320;2022-09-02T09:24:27;94562.03;;;25.59;100.00
38400;BME280;24180;42.676;23.320;2022-09-02T09:27:20;94566.50;;;25.92;100.00
38400;BME280;24180;42.676;23.320;2022-09-02T09:29:46;94549.53;;;26.09;100.00
38400;BME280;24180;42.676;23.320;2022-09-02T09:37:48;94553.75;;;27.63;100.00
38400;BME280;24180;42.676;23.320;2022-09-02T09:45:50;94552.97;;;28.41;100.00
38400;BME280;24180;42.676;23.320;2022-09-02T09:48:27;94541.78;;;28.39;100.00
38400;BME280;24180;42.676;23.320;2022-09-02T09:53:30;94541.75;;;27.60;100.00
38400;BME280;24180;42.676;23.320;2022-09-02T09:56:23;94539.81;;;27.24;100.00
38400;BME280;24180;42.676;23.320;2022-09-02T09:58:50;94547.47;;;26.72;100.00
38400;BME280;24180;42.676;23.320;2022-09-02T10:01:27;94550.84;;;26.24;100.00
38400;BME280;24180;42.676;23.320;2022-09-02T10:04:31;94550.66;;;26.30;100.00
38400;BME280;24180;42.676;23.320;2022-09-02T10:06:58;94537.75;;;26.61;100.00
38400;BME280;24180;42.676;23.320;2022-09-02T10:09:34;94543.19;;;26.92;100.00
38400;BME280;24180;42.676;23.320;2022-09-02T10:12:05;94545.91;;;27.24;100.00
38400;BME280;24180;42.676;23.320;2022-09-02T10:14:42;94542.81;;;27.59;100.00
38400;BME280;24180;42.676;23.320;2022-09-02T10:17:30;94539.75;;;27.77;100.00
38400;BME280;24180;42.676;23.320;2022-09-02T10:20:16;94551.69;;;27.43;100.00
38400;BME280;24180;42.676;23.320;2022-09-02T10:28:06;94544.44;;;27.60;100.00
38400;BME280;24180;42.676;23.320;2022-09-02T10:30:58;94540.75;;;27.66;100.00
38400;BME280;24180;42.676;23.320;2022-09-02T10:33:35;94550.06;;;28.06;100.00
38400;BME280;24180;42.676;23.320;2022-09-02T10:41:44;94539.00;;;28.19;100.00
38400;BME280;24180;42.676;23.320;2022-09-02T10:44:25;94547.84;;;28.24;100.00
38400;BME280;24180;42.676;23.320;2022-09-02T10:53:16;94546.41;;;29.31;98.08
38400;BME280;24180;42.676;23.320;2022-09-02T10:56:00;94535.78;;;29.97;92.70
38400;BME280;24180;42.676;23.320;2022-09-02T11:01:02;94542.75;;;30.87;86.91
38400;BME280;24180;42.676;23.320;2022-09-02T11:03:50;94540.25;;;31.11;82.20
38400;BME280;24180;42.676;23.320;2022-09-02T11:06:23;94532.75;;;34.22;64.59
38400;BME280;24180;42.676;23.320;2022-09-02T11:08:52;94522.09;;;35.62;57.19
38400;BME280;24180;42.676;23.320;2022-09-02T11:14:23;94525.84;;;39.20;43.47
38400;BME280;24180;42.676;23.320;2022-09-02T11:16:54;94525.31;;;38.04;43.65
38400;BME280;24180;42.676;23.320;2022-09-02T11:19:40;94521.22;;;36.11;48.80
38400;BME280;24180;42.676;23.320;2022-09-02T11:25:20;94519.53;;;34.53;55.86
38400;BME280;24180;42.676;23.320;2022-09-02T11:31:03;94518.31;;;36.38;49.17
38400;BME280;24180;42.676;23.320;2022-09-02T11:36:08;94510.69;;;36.09;49.17
38400;BME280;24180;42.676;23.320;2022-09-02T11:38:39;94506.69;;;35.18;53.76
38400;BME280;24180;42.676;23.320;2022-09-02T11:41:17;94506.00;;;33.98;58.93
38400;BME280;24180;42.676;23.320;2022-09-02T11:43:50;94504.19;;;33.42;63.26
38400;BME280;24180;42.676;23.320;2022-09-02T11:54:12;94484.28;;;32.87;71.21
38400;BME280;24180;42.676;23.320;2022-09-02T11:56:42;94482.88;;;35.56;56.01
38400;BME280;24180;42.676;23.320;2022-09-02T11:59:20;94482.63;;;36.81;48.51
38400;BME280;24180;42.676;23.320;2022-09-02T12:01:49;94490.31;;;36.17;47.99
38400;BME280;24180;42.676;23.320;2022-09-02T12:04:23;94483.69;;;34.44;54.25
38400;BME280;24180;42.676;23.320;2022-09-02T12:09:55;94491.47;;;32.26;69.13
38400;BME280;24180;42.676;23.320;2022-09-02T12:17:45;94482.31;;;35.81;51.76
38400;BME280;24180;42.676;23.320;2022-09-02T12:26:59;94487.47;;;32.47;67.53
38400;BME280;24180;42.676;23.320;2022-09-02T12:31:46;94476.22;;;32.45;67.51
38400;BME280;24180;42.676;23.320;2022-09-02T12:44:28;94457.75;;;31.62;82.56
38400;BME280;24180;42.676;23.320;2022-09-02T12:53:27;94456.09;;;33.46;60.62
38400;BME280;24180;42.676;23.320;2022-09-02T12:56:05;94453.78;;;31.60;71.44
38400;BME280;24180;42.676;23.320;2022-09-02T12:58:46;94441.63;;;30.50;80.87
38400;BME280;24180;42.676;23.320;2022-09-02T13:01:16;94444.72;;;30.08;86.12
38400;BME280;24180;42.676;23.320;2022-09-02T13:15:19;94439.16;;;28.21;100.00
38400;BME280;24180;42.676;23.320;2022-09-02T13:26:14;94434.75;;;26.41;100.00
38400;BME280;24180;42.676;23.320;2022-09-02T13:29:12;94443.19;;;26.16;100.00
38400;BME280;24180;42.676;23.320;2022-09-02T13:34:47;94445.00;;;25.72;100.00
38400;BME280;24180;42.676;23.320;2022-09-02T13:37:32;94447.53;;;25.62;100.00
38400;BME280;24180;42.676;23.320;2022-09-02T13:40:00;94445.66;;;25.46;100.00
38400;BME280;24180;42.676;23.320;2022-09-02T13:42:29;94443.69;;;25.20;100.00
38400;BME280;24180;42.676;23.320;2022-09-02T13:45:15;94457.63;;;24.70;100.00
38400;BME280;24180;42.676;23.320;2022-09-02T13:47:43;94467.22;;;24.31;100.00
38400;BME280;24180;42.676;23.320;2022-09-02T13:50:11;94472.63;;;24.13;100.00
38400;BME280;24180;42.676;23.320;2022-09-02T13:52:39;94478.41;;;23.98;100.00
38400;BME280;24180;42.676;23.320;2022-09-02T13:55:05;94481.09;;;22.99;100.00
38400;BME280;24180;42.676;23.320;2022-09-02T13:57:33;94474.09;;;22.45;100.00
38400;BME280;24180;42.676;23.320;2022-09-02T14:00:00;94467.22;;;22.44;100.00
38400;BME280;24180;42.676;23.320;2022-09-02T14:02:28;94466.84;;;22.40;100.00
38400;BME280;24180;42.676;23.320;2022-09-02T14:05:04;94476.28;;;22.48;100.00
38400;BME280;24180;42.676;23.320;2022-09-02T14:07:36;94490.97;;;22.44;100.00
38400;BME280;24180;42.676;23.320;2022-09-02T14:10:06;94478.56;;;21.96;100.00
38400;BME280;24180;42.676;23.320;2022-09-02T14:12:36;94487.09;;;20.68;100.00
38400;BME280;24180;42.676;23.320;2022-09-02T14:15:05;94476.78;;;20.22;100.00
38400;BME280;24180;42.676;23.320;2022-09-02T14:17:32;94473.59;;;20.06;100.00
38400;BME280;24180;42.676;23.320;2022-09-02T14:20:19;94476.66;;;19.97;100.00
38400;BME280;24180;42.676;23.320;2022-09-02T14:22:56;94475.34;;;19.68;100.00
38400;BME280;24180;42.676;23.320;2022-09-02T14:25:23;94473.34;;;19.50;100.00
38400;BME280;24180;42.676;23.320;2022-09-02T14:27:57;94484.84;;;19.56;100.00
38400;BME280;24180;42.676;23.320;2022-09-02T14:30:52;94486.84;;;19.74;100.00
38400;BME280;24180;42.676;23.320;2022-09-02T14:36:01;94458.06;;;20.49;100.00
38400;BME280;24180;42.676;23.320;2022-09-02T14:38:30;94450.69;;;20.65;100.00
38400;BME280;24180;42.676;23.320;2022-09-02T14:40:59;94451.59;;;20.77;100.00
38400;BME280;24180;42.676;23.320;2022-09-02T14:43:26;94445.56;;;20.38;100.00
38400;BME280;24180;42.676;23.320;2022-09-02T14:46:03;94459.31;;;20.40;100.00
38400;BME280;24180;42.676;23.320;2022-09-02T14:48:35;94451.47;;;20.27;100.00
38400;BME280;24180;42.676;23.320;2022-09-02T14:51:06;94440.16;;;20.20;100.00
38400;BME280;24180;42.676;23.320;2022-09-02T14:53:33;94454.75;;;20.16;100.00
38400;BME280;24180;42.676;23.320;2022-09-02T14:56:02;94461.78;;;20.22;100.00
38400;BME280;24180;42.676;23.320;2022-09-02T14:58:28;94461.16;;;20.27;100.00
38400;BME280;24180;42.676;23.320;2022-09-02T15:00:59;94465.63;;;20.26;100.00
38400;BME280;24180;42.676;23.320;2022-09-02T15:03:26;94471.72;;;20.20;100.00